Time;durP1;ratioP1;P1;durP2;ratioP2;P2;SDS_P1;SDS_P2;PMS_P1;PMS_P2;Temp;Humidity;BMP_temperature;BMP_pressure;BME280_temperature;BME280_humidity;BME280_pressure;Samples;Min_cycle;Max_cycle;Signal;HPM_P1;HPM_P2
2022/01/17 00:00:16;;;;;;;21.57;9.13;;;;;;;-0.87;76.44;147458.88;1777626;79;21014;-61
2022/01/17 00:02:43;;;;;;;19.70;8.30;;;;;;;-0.87;76.42;147457.63;1795754;79;21084;-60
2022/01/17 00:05:11;;;;;;;16.40;7.72;;;;;;;-0.88;76.44;147456.31;1777988;79;21705;-62
2022/01/17 00:07:37;;;;;;;16.77;8.20;;;;;;;-0.88;76.46;147456.31;1793882;79;21048;-61
2022/01/17 00:10:06;;;;;;;18.75;8.03;;;;;;;-0.87;76.47;147457.63;1781152;79;21070;-60
2022/01/17 00:12:36;;;;;;;23.65;8.53;;;;;;;-0.85;76.47;147461.45;1765229;79;21012;-60
2022/01/17 00:15:01;;;;;;;16.37;8.15;;;;;;;-0.84;76.46;147464.03;1799840;79;21027;-61
2022/01/17 00:17:36;;;;;;;18.73;8.35;;;;;;;-0.84;76.43;147465.34;1794807;79;21745;-60
2022/01/17 00:20:08;;;;;;;17.23;8.15;;;;;;;-0.83;76.41;147466.59;1786435;79;20954;-60
2022/01/17 00:22:27;;;;;;;18.20;7.95;;;;;;;-0.82;76.39;147469.16;1781670;79;21062;-61
2022/01/17 00:24:54;;;;;;;18.45;8.70;;;;;;;-0.83;76.36;147466.59;1794986;79;21087;-61
2022/01/17 00:27:21;;;;;;;15.68;7.12;;;;;;;-0.84;76.33;147464.03;1784521;79;21540;-61
2022/01/17 00:29:48;;;;;;;18.23;7.25;;;;;;;-0.84;76.41;147464.03;1790480;79;21085;-60
2022/01/17 00:32:14;;;;;;;17.55;7.78;;;;;;;-0.84;76.37;147465.34;1790163;79;21553;-59
2022/01/17 00:34:41;;;;;;;19.87;7.50;;;;;;;-0.82;76.39;147469.16;1788311;79;20984;-58
2022/01/17 00:37:08;;;;;;;17.32;7.37;;;;;;;-0.82;76.40;147470.47;1804148;79;21010;-59
2022/01/17 00:39:35;;;;;;;19.57;7.28;;;;;;;-0.81;76.44;147471.73;1796204;78;21040;-60
2022/01/17 00:42:03;;;;;;;19.73;7.55;;;;;;;-0.82;76.44;147470.47;1793169;79;21091;-60
2022/01/17 00:44:31;;;;;;;20.92;7.72;;;;;;;-0.82;76.49;147470.47;1787415;79;21033;-60
2022/01/17 00:46:57;;;;;;;22.07;7.92;;;;;;;-0.80;76.52;147474.31;1796283;79;21039;-59
2022/01/17 00:49:24;;;;;;;21.02;8.38;;;;;;;-0.79;76.57;147476.88;1767214;79;21062;-60
2022/01/17 00:51:50;;;;;;;17.32;8.00;;;;;;;-0.80;76.62;147475.61;1792503;79;21003;-60
2022/01/17 00:54:17;;;;;;;19.20;7.87;;;;;;;-0.79;76.67;147476.88;1760419;79;21156;-60
2022/01/17 00:56:43;;;;;;;16.70;7.58;;;;;;;-0.78;76.75;147480.75;1799182;79;21116;-59
2022/01/17 00:59:10;;;;;;;19.75;7.58;;;;;;;-0.75;76.88;147488.47;1778354;78;21113;-59
2022/01/17 01:01:37;;;;;;;18.75;7.55;;;;;;;-0.73;76.98;147493.59;1795807;79;20999;-59
2022/01/17 01:04:03;;;;;;;19.15;8.23;;;;;;;-0.67;77.07;147507.77;1765692;80;21066;-59
2022/01/17 01:06:30;;;;;;;19.10;7.65;;;;;;;-0.61;77.05;147523.19;1771352;80;21535;-61
2022/01/17 01:08:57;;;;;;;16.35;7.42;;;;;;;-0.56;77.00;147533.47;1777008;79;21402;-59
2022/01/17 01:11:24;;;;;;;15.93;7.25;;;;;;;-0.50;76.99;147548.94;1766204;80;21035;-58
2022/01/17 01:13:50;;;;;;;18.17;8.58;;;;;;;-0.47;76.95;147556.66;1774216;79;21210;-59
2022/01/17 01:29:26;;;;;;;16.52;7.62;;;;;;;-0.32;76.77;147595.27;1803856;78;21422;-61
2022/01/17 01:31:58;;;;;;;14.78;7.50;;;;;;;-0.32;76.79;147595.27;1791633;79;21588;-61
2022/01/17 01:34:31;;;;;;;19.57;8.10;;;;;;;-0.34;76.80;147590.06;1761396;80;21164;-61
2022/01/17 01:36:49;;;;;;;19.85;8.70;;;;;;;-0.35;76.89;147586.23;1772026;79;21056;-61
2022/01/17 01:39:22;;;;;;;17.50;8.10;;;;;;;-0.37;77.02;147582.36;1767852;80;21063;-60
2022/01/17 01:41:45;;;;;;;22.07;8.93;;;;;;;-0.40;77.23;147574.64;1774872;79;21467;-61
2022/01/17 01:44:13;;;;;;;18.75;8.33;;;;;;;-0.41;77.40;147570.81;1778404;79;21119;-61
2022/01/17 01:46:41;;;;;;;17.40;8.63;;;;;;;-0.44;77.66;147564.36;1784732;79;21040;-60
2022/01/17 01:49:08;;;;;;;22.73;8.85;;;;;;;-0.45;77.89;147561.80;1796789;78;21125;-61
2022/01/17 01:51:35;;;;;;;21.02;8.60;;;;;;;-0.47;78.03;147557.91;1777767;79;21030;-60
2022/01/17 01:54:01;;;;;;;19.40;8.50;;;;;;;-0.46;78.28;147559.22;1769061;79;21028;-61
2022/01/17 01:56:28;;;;;;;18.87;8.35;;;;;;;-0.48;78.46;147554.08;1770805;80;21022;-61
2022/01/17 01:58:55;;;;;;;18.02;8.93;;;;;;;-0.49;78.65;147551.50;1797401;79;20971;-61
2022/01/17 02:01:23;;;;;;;20.27;8.80;;;;;;;-0.50;78.86;147550.20;1772071;79;21328;-60
2022/01/17 02:03:49;;;;;;;21.23;8.98;;;;;;;-0.51;79.09;147546.37;1771323;79;21090;-62
2022/01/17 02:06:16;;;;;;;22.87;9.90;;;;;;;-0.53;79.21;147541.22;1782418;79;21070;-61
2022/01/17 02:08:43;;;;;;;17.67;8.68;;;;;;;-0.52;79.38;147543.80;1780391;80;21914;-61
2022/01/17 02:11:11;;;;;;;20.90;9.65;;;;;;;-0.54;79.54;147539.92;1803733;79;21081;-61
2022/01/17 02:13:39;;;;;;;22.62;8.88;;;;;;;-0.54;79.72;147538.66;1774053;80;21663;-61
2022/01/17 02:16:14;;;;;;;22.37;9.68;;;;;;;-0.51;79.89;147546.37;1789397;79;21040;-61
2022/01/17 02:18:44;;;;;;;19.92;9.65;;;;;;;-0.50;80.05;147548.94;1774765;79;21060;-61
2022/01/17 02:21:32;;;;;;;20.02;9.48;;;;;;;-0.44;80.32;147564.36;1798404;79;21135;-61
2022/01/17 02:23:51;;;;;;;21.20;9.95;;;;;;;-0.40;80.53;147574.64;1778032;79;21035;-60
2022/01/17 02:26:19;;;;;;;22.87;10.18;;;;;;;-0.35;80.68;147586.23;1790983;79;21017;-60
2022/01/17 02:28:52;;;;;;;25.05;10.05;;;;;;;-0.30;80.80;147600.41;1787612;79;21516;-60
2022/01/17 02:31:19;;;;;;;25.97;10.25;;;;;;;-0.25;81.00;147610.69;1784836;79;21038;-61
2022/01/17 02:33:45;;;;;;;23.73;10.10;;;;;;;-0.21;81.04;147620.97;1788661;79;21626;-59
2022/01/17 02:36:12;;;;;;;18.87;8.90;;;;;;;-0.19;81.07;147627.42;1789834;79;21041;-60
2022/01/17 02:38:39;;;;;;;21.30;10.00;;;;;;;-0.16;81.09;147633.83;1802667;79;21076;-60
2022/01/17 02:41:06;;;;;;;23.05;9.75;;;;;;;-0.13;81.06;147640.28;1783415;79;21050;-60
2022/01/17 02:43:34;;;;;;;24.43;10.45;;;;;;;-0.12;81.12;147644.13;1782720;79;21480;-60
2022/01/17 02:48:39;;;;;;;21.27;9.80;;;;;;;-0.08;81.21;147654.45;1800504;79;21017;-60
2022/01/17 02:51:05;;;;;;;20.15;10.32;;;;;;;-0.07;81.25;147655.72;1788441;79;21743;-61
2022/01/17 02:53:34;;;;;;;24.45;10.08;;;;;;;-0.06;81.35;147659.59;1796605;79;20980;-60
2022/01/17 02:56:05;;;;;;;20.72;10.10;;;;;;;-0.05;81.37;147662.16;1796936;78;21042;-60
2022/01/17 02:58:33;;;;;;;23.62;10.75;;;;;;;-0.04;81.49;147664.73;1781611;79;21492;-61
2022/01/17 03:01:09;;;;;;;21.42;9.53;;;;;;;-0.02;81.60;147669.88;1783306;79;21038;-63
2022/01/17 03:03:35;;;;;;;22.90;9.85;;;;;;;-0.01;81.67;147672.45;1790983;79;21050;-60
2022/01/17 03:06:02;;;;;;;21.85;10.68;;;;;;;0.01;81.73;147675.02;1787183;79;21477;-61
2022/01/17 03:08:32;;;;;;;21.30;10.55;;;;;;;0.02;81.83;147677.59;1788948;79;21970;-61
2022/01/17 03:11:00;;;;;;;24.32;10.25;;;;;;;0.02;81.90;147678.91;1784755;79;21794;-60
2022/01/17 03:13:34;;;;;;;22.93;10.03;;;;;;;0.00;81.95;147673.75;1770178;80;21533;-60
2022/01/17 03:15:59;;;;;;;23.27;10.65;;;;;;;0.00;82.10;147673.75;1782557;79;21063;-60
2022/01/17 03:18:29;;;;;;;20.25;10.03;;;;;;;-0.01;82.18;147671.14;1789794;79;21133;-60
2022/01/17 03:20:57;;;;;;;21.97;10.15;;;;;;;-0.01;82.31;147672.45;1801348;79;21102;-60
2022/01/17 03:23:24;;;;;;;26.68;11.00;;;;;;;-0.01;82.50;147672.45;1794149;79;21215;-60
2022/01/17 03:25:50;;;;;;;24.72;9.48;;;;;;;-0.01;82.78;147672.45;1774642;79;20920;-60
2022/01/17 03:28:18;;;;;;;22.73;10.72;;;;;;;0.02;83.10;147677.59;1799571;79;36645;-59
2022/01/17 03:30:45;;;;;;;22.58;10.03;;;;;;;0.03;83.30;147681.47;1785873;79;21035;-59
2022/01/17 03:33:13;;;;;;;29.37;10.82;;;;;;;0.05;83.36;147685.31;1799125;79;21528;-59
2022/01/17 03:35:40;;;;;;;22.35;10.60;;;;;;;0.05;83.49;147685.31;1792085;79;21859;-59
2022/01/17 03:38:09;;;;;;;19.92;9.80;;;;;;;0.06;83.75;147687.87;1787979;79;21026;-59
2022/01/17 03:40:36;;;;;;;18.35;9.63;;;;;;;0.07;83.91;147691.77;1774737;79;21026;-59
2022/01/17 03:43:04;;;;;;;25.75;10.70;;;;;;;0.11;84.18;147700.75;1797083;79;21618;-59
2022/01/17 03:45:32;;;;;;;20.82;10.10;;;;;;;0.15;84.31;147711.08;1784409;79;21016;-59
2022/01/17 03:47:59;;;;;;;21.05;10.23;;;;;;;0.21;84.47;147726.50;1792735;79;21781;-58
2022/01/17 03:50:26;;;;;;;25.27;10.23;;;;;;;0.24;84.62;147734.22;1801187;78;21042;-59
2022/01/17 03:52:53;;;;;;;21.42;10.13;;;;;;;0.30;84.73;147747.09;1774601;79;21003;-58
2022/01/17 03:55:21;;;;;;;27.62;11.33;;;;;;;0.35;84.86;147760.00;1791644;79;21121;-59
2022/01/17 03:57:48;;;;;;;24.82;10.88;;;;;;;0.40;84.97;147772.86;1785238;79;21333;-59
2022/01/17 04:00:23;;;;;;;24.92;11.03;;;;;;;0.44;85.01;147783.16;1797692;79;22139;-59
2022/01/17 04:02:50;;;;;;;24.30;11.18;;;;;;;0.46;85.06;147788.30;1773425;79;21461;-58
2022/01/17 04:05:17;;;;;;;27.58;11.28;;;;;;;0.48;85.14;147793.44;1778745;79;21067;-59
2022/01/17 04:07:43;;;;;;;26.25;11.30;;;;;;;0.51;85.28;147799.91;1795146;79;21043;-60
2022/01/17 04:10:11;;;;;;;22.02;10.58;;;;;;;0.52;85.49;147803.73;1798642;79;21057;-59
2022/01/17 04:12:38;;;;;;;24.40;11.12;;;;;;;0.54;85.52;147807.61;1779744;79;21840;-59
2022/01/17 04:15:07;;;;;;;25.55;10.75;;;;;;;0.54;85.60;147808.88;1784850;79;21080;-59
2022/01/17 04:17:34;;;;;;;25.70;11.68;;;;;;;0.55;85.74;147811.50;1795291;79;21638;-60
2022/01/17 04:20:05;;;;;;;25.00;11.25;;;;;;;0.57;85.85;147815.34;1793541;79;21082;-59
2022/01/17 04:22:37;;;;;;;26.97;11.25;;;;;;;0.58;85.93;147816.64;1802977;79;21018;-59
2022/01/17 04:25:02;;;;;;;25.75;11.00;;;;;;;0.60;86.05;147821.78;1779547;79;21519;-59
2022/01/17 04:27:29;;;;;;;25.32;11.35;;;;;;;0.62;86.19;147826.94;1797058;79;21091;-59
2022/01/17 04:29:56;;;;;;;26.33;11.28;;;;;;;0.63;86.28;147829.52;1778903;79;21050;-58
2022/01/17 04:32:24;;;;;;;26.73;11.60;;;;;;;0.63;86.36;147830.78;1791894;79;21036;-59
2022/01/17 04:34:51;;;;;;;25.82;11.78;;;;;;;0.63;86.48;147829.52;1802030;79;21036;-58
2022/01/17 04:37:18;;;;;;;24.82;11.53;;;;;;;0.63;86.54;147829.52;1779387;79;21135;-59
2022/01/17 04:39:44;;;;;;;25.05;11.70;;;;;;;0.66;86.60;147837.23;1790895;78;21003;-59
2022/01/17 04:42:12;;;;;;;23.12;11.45;;;;;;;0.65;86.73;147835.92;1785443;79;21545;-59
2022/01/17 04:47:25;;;;;;;28.00;11.55;;;;;;;0.71;87.00;147850.09;1775089;79;21671;-58
2022/01/17 04:49:51;;;;;;;24.45;11.85;;;;;;;0.75;87.10;147859.12;1785347;79;21117;-58
2022/01/17 04:52:18;;;;;;;25.08;11.63;;;;;;;0.78;87.19;147868.16;1789175;79;21625;-61
2022/01/17 04:54:52;;;;;;;24.45;11.83;;;;;;;0.82;87.23;147878.45;1796321;79;21084;-59
2022/01/17 04:57:13;;;;;;;26.93;12.30;;;;;;;0.85;87.22;147886.17;1774710;80;21022;-59
2022/01/17 04:59:40;;;;;;;25.95;11.85;;;;;;;0.89;87.19;147893.89;1789078;79;21046;-59
2022/01/17 05:02:07;;;;;;;25.82;11.78;;;;;;;0.94;87.12;147906.77;1790743;78;21115;-59
2022/01/17 05:04:34;;;;;;;26.97;11.90;;;;;;;0.97;87.06;147914.48;1795652;79;22272;-59
2022/01/17 05:07:00;;;;;;;24.57;11.90;;;;;;;1.02;86.96;147927.41;1794185;79;21029;-60
2022/01/17 05:09:27;;;;;;;27.50;12.63;;;;;;;1.06;86.88;147937.69;1786892;79;21056;-60
2022/01/17 05:11:53;;;;;;;24.32;11.30;;;;;;;1.08;86.77;147942.84;1793557;79;21010;-59
2022/01/17 05:14:20;;;;;;;26.52;12.03;;;;;;;1.11;86.67;147950.56;1783128;80;21625;-60
2022/01/17 05:16:52;;;;;;;25.10;10.60;;;;;;;1.14;86.58;147958.28;1796424;79;21072;-60
2022/01/17 05:22:00;;;;;;;25.27;11.20;;;;;;;1.20;86.30;147972.47;1790394;79;28203;-60
2022/01/17 05:24:27;;;;;;;27.35;12.07;;;;;;;1.22;86.16;147976.36;1794239;78;21074;-60
2022/01/17 05:26:55;;;;;;;22.70;10.80;;;;;;;1.22;86.10;147977.63;1785938;78;21345;-59
2022/01/17 05:29:26;;;;;;;25.10;11.48;;;;;;;1.24;86.02;147981.50;1770272;80;21041;-60
2022/01/17 05:31:51;;;;;;;25.27;10.50;;;;;;;1.27;85.95;147989.23;1780468;79;20978;-63
2022/01/17 05:34:17;;;;;;;24.20;11.68;;;;;;;1.28;85.87;147993.06;1800079;79;21108;-59
2022/01/17 05:36:44;;;;;;;26.95;12.18;;;;;;;1.29;85.81;147994.38;1785969;79;21414;-60
2022/01/17 05:39:11;;;;;;;22.80;10.50;;;;;;;1.31;85.73;147999.53;1784481;79;21124;-60
2022/01/17 05:41:38;;;;;;;24.10;11.20;;;;;;;1.33;85.73;148004.67;1794514;78;20995;-59
2022/01/17 05:44:05;;;;;;;28.45;11.30;;;;;;;1.34;85.63;148007.25;1790982;79;21055;-61
2022/01/17 05:46:32;;;;;;;26.10;11.38;;;;;;;1.36;85.58;148012.39;1798721;79;21702;-59
2022/01/17 05:48:59;;;;;;;26.70;11.53;;;;;;;1.39;85.49;148020.13;1782425;79;21069;-59
2022/01/17 05:51:25;;;;;;;23.40;10.65;;;;;;;1.40;85.41;148022.69;1796675;79;21090;-60
2022/01/17 05:53:52;;;;;;;21.95;10.63;;;;;;;1.41;85.30;148025.27;1781836;79;21505;-59
2022/01/17 05:56:19;;;;;;;27.20;12.05;;;;;;;1.42;85.21;148027.84;1760629;81;20989;-58
2022/01/17 05:58:45;;;;;;;23.42;11.45;;;;;;;1.45;85.16;148033.05;1723404;81;21096;-59
2022/01/17 06:01:13;;;;;;;24.55;11.38;;;;;;;1.45;85.03;148034.31;1759316;81;21060;-59
2022/01/17 06:03:40;;;;;;;24.15;12.15;;;;;;;1.46;84.92;148035.62;1744043;81;21108;-59
2022/01/17 06:06:06;;;;;;;23.67;10.68;;;;;;;1.47;84.76;148038.19;1750901;81;20960;-59
2022/01/17 06:08:33;;;;;;;27.95;11.73;;;;;;;1.49;84.69;148043.34;1753457;81;21120;-60
2022/01/17 06:11:00;;;;;;;28.50;11.20;;;;;;;1.53;84.40;148053.64;1746177;81;21044;-60
2022/01/17 06:13:27;;;;;;;24.63;11.22;;;;;;;1.55;84.29;148058.78;1750280;81;21063;-59
2022/01/17 06:15:56;;;;;;;23.85;11.20;;;;;;;1.57;84.14;148065.25;1746300;81;21481;-58
2022/01/17 06:18:24;;;;;;;27.05;11.40;;;;;;;1.60;84.06;148071.66;1753244;81;20995;-59
2022/01/17 06:20:51;;;;;;;22.87;11.03;;;;;;;1.62;83.99;148076.81;1751338;81;20984;-59
2022/01/17 06:23:17;;;;;;;20.52;11.05;;;;;;;1.65;83.94;148084.55;1742259;81;21080;-59
2022/01/17 06:25:44;;;;;;;24.98;11.28;;;;;;;1.67;83.82;148089.75;1797091;78;21032;-59
2022/01/17 06:28:11;;;;;;;23.12;10.80;;;;;;;1.69;83.80;148093.58;1801726;79;21560;-59
2022/01/17 06:30:39;;;;;;;23.92;11.75;;;;;;;1.73;83.74;148102.63;1802074;79;21523;-59
2022/01/17 06:33:06;;;;;;;21.05;10.88;;;;;;;1.75;83.67;148107.77;1778707;79;21547;-59
2022/01/17 06:35:32;;;;;;;28.00;11.35;;;;;;;1.77;83.58;148112.92;1796848;79;21122;-59
2022/01/17 06:37:59;;;;;;;31.87;11.73;;;;;;;1.77;83.46;148112.92;1794310;79;21430;-60
2022/01/17 06:40:26;;;;;;;23.57;10.72;;;;;;;1.79;83.25;148118.06;1749525;81;21798;-61
2022/01/17 06:42:52;;;;;;;23.80;11.38;;;;;;;1.80;83.18;148121.97;1733141;81;21072;-60
2022/01/17 06:45:19;;;;;;;24.80;11.28;;;;;;;1.84;83.01;148132.27;1736074;81;21443;-60
2022/01/17 06:47:45;;;;;;;24.60;11.33;;;;;;;1.88;82.92;148141.30;1734855;82;21596;-61
2022/01/17 06:50:12;;;;;;;28.77;11.40;;;;;;;1.91;82.71;148149.03;1729090;81;21059;-59
2022/01/17 06:52:39;;;;;;;25.37;11.38;;;;;;;1.92;82.52;148151.59;1729972;82;21908;-61
2022/01/17 06:55:09;;;;;;;23.07;11.33;;;;;;;1.94;82.21;148156.75;1727928;81;21111;-61
2022/01/17 06:57:36;;;;;;;26.35;11.73;;;;;;;1.93;81.95;148154.17;1733182;81;21127;-59
2022/01/17 07:00:08;;;;;;;23.65;10.85;;;;;;;1.93;81.68;148154.17;1727900;81;21056;-59
2022/01/17 07:02:35;;;;;;;25.30;11.50;;;;;;;1.93;81.64;148154.17;1735284;81;21099;-60
2022/01/17 07:05:03;;;;;;;24.95;11.05;;;;;;;1.97;81.49;148163.17;1734753;81;21554;-60
2022/01/17 07:07:33;;;;;;;21.55;11.35;;;;;;;1.99;81.18;148169.64;1734757;81;21078;-60
2022/01/17 07:10:03;;;;;;;26.05;11.93;;;;;;;2.02;81.06;148174.78;1735383;81;21087;-59
2022/01/17 07:12:36;;;;;;;26.25;12.00;;;;;;;2.05;80.96;148182.52;1700611;82;21303;-59
2022/01/17 07:15:05;;;;;;;25.30;11.35;;;;;;;2.08;80.71;148191.56;1730596;81;21064;-60
2022/01/17 07:17:33;;;;;;;22.90;11.70;;;;;;;2.10;80.33;148196.70;1732542;81;21673;-60
2022/01/17 07:20:01;;;;;;;21.00;11.10;;;;;;;2.14;80.19;148205.75;1722600;81;22037;-61
2022/01/17 07:22:31;;;;;;;24.32;10.63;;;;;;;2.18;79.99;148216.06;1732092;81;21021;-60
2022/01/17 07:25:00;;;;;;;20.95;10.70;;;;;;;2.23;79.75;148228.94;1744639;80;21011;-61
2022/01/17 07:30:11;;;;;;;23.60;10.95;;;;;;;2.33;79.15;148252.17;1731496;81;21354;-60
2022/01/17 07:32:38;;;;;;;27.67;10.50;;;;;;;2.36;78.92;148259.91;1726113;81;20992;-60
2022/01/17 07:35:06;;;;;;;24.20;10.82;;;;;;;2.39;78.64;148268.89;1749399;80;21075;-62
2022/01/17 07:37:33;;;;;;;20.70;10.10;;;;;;;2.39;78.28;148267.63;1737704;81;21036;-61
2022/01/17 07:40:01;;;;;;;22.37;10.58;;;;;;;2.41;78.12;148272.78;1768051;78;21048;-61
2022/01/17 07:42:28;;;;;;;22.05;10.70;;;;;;;2.44;77.86;148280.52;1765709;78;21120;-61
2022/01/17 07:44:57;;;;;;;21.37;10.53;;;;;;;2.45;77.77;148283.09;1787345;77;21006;-59
2022/01/17 07:47:40;;;;;;;23.90;10.13;;;;;;;2.47;77.53;148288.25;1786031;78;21083;-60
2022/01/17 07:49:56;;;;;;;19.45;9.65;;;;;;;2.48;77.27;148290.83;1784285;78;21119;-60
2022/01/17 07:52:22;;;;;;;21.50;11.00;;;;;;;2.47;77.04;148288.25;1793396;79;21048;-61
2022/01/17 07:54:49;;;;;;;23.30;11.10;;;;;;;2.47;76.91;148286.98;1788747;79;21586;-60
2022/01/17 07:57:16;;;;;;;20.32;10.48;;;;;;;2.47;76.87;148288.25;1798903;79;21636;-59
2022/01/17 07:59:43;;;;;;;20.95;10.93;;;;;;;2.49;76.71;148292.14;1797842;79;21592;-61
2022/01/17 08:02:10;;;;;;;26.77;10.68;;;;;;;2.50;76.62;148295.97;1786703;79;21450;-60
2022/01/17 08:04:37;;;;;;;23.18;9.95;;;;;;;2.51;76.59;148298.56;1791010;79;21060;-60
2022/01/17 08:07:07;;;;;;;22.87;11.18;;;;;;;2.55;76.53;148308.91;1791532;79;21479;-60
2022/01/17 08:09:33;;;;;;;22.48;10.55;;;;;;;2.58;76.42;148316.64;1789709;79;21095;-59
2022/01/17 08:12:00;;;;;;;18.77;10.10;;;;;;;2.60;76.02;148319.22;1797799;77;21437;-60
2022/01/17 08:14:29;;;;;;;20.55;10.23;;;;;;;2.58;75.77;148316.64;1790917;79;21095;-60
2022/01/17 08:16:56;;;;;;;24.10;11.12;;;;;;;2.58;75.47;148316.64;1788660;79;21049;-60
2022/01/17 08:19:24;;;;;;;25.88;11.43;;;;;;;2.57;75.06;148314.06;1789801;79;21113;-60
2022/01/17 08:21:54;;;;;;;22.17;10.93;;;;;;;2.56;74.80;148311.48;1788372;79;21040;-60
2022/01/17 08:24:21;;;;;;;23.20;11.35;;;;;;;2.53;74.45;148302.44;1784488;79;21008;-60
2022/01/17 08:26:50;;;;;;;21.55;10.55;;;;;;;2.51;74.53;148298.56;1790010;78;21033;-61
2022/01/17 08:29:19;;;;;;;23.35;12.18;;;;;;;2.49;74.36;148292.14;1790656;78;21365;-60
2022/01/17 08:31:47;;;;;;;23.30;10.90;;;;;;;2.45;74.15;148283.09;1791423;79;21127;-61
2022/01/17 08:34:15;;;;;;;22.25;11.70;;;;;;;2.46;74.12;148284.41;1791429;79;21562;-60
2022/01/17 08:39:14;;;;;;;26.07;11.40;;;;;;;2.54;74.07;148306.34;1828306;77;22369;-60
2022/01/17 08:41:42;;;;;;;25.70;12.13;;;;;;;2.52;73.92;148299.88;1803488;78;20963;-60
2022/01/17 08:44:12;;;;;;;23.30;11.70;;;;;;;2.53;73.74;148303.70;1806916;78;21123;-60
2022/01/17 08:46:39;;;;;;;25.55;12.25;;;;;;;2.55;73.54;148307.59;1800697;78;21086;-61
2022/01/17 08:49:06;;;;;;;23.32;11.35;;;;;;;2.54;73.50;148306.34;1803783;78;21074;-60
2022/01/17 08:51:33;;;;;;;27.60;12.98;;;;;;;2.56;73.55;148310.17;1808260;78;21508;-60
2022/01/17 08:54:00;;;;;;;22.22;11.20;;;;;;;2.60;73.51;148319.22;1802843;78;21022;-60
2022/01/17 08:56:29;;;;;;;21.62;12.13;;;;;;;2.64;73.22;148329.53;1806551;78;21000;-59
2022/01/17 08:58:57;;;;;;;25.65;13.38;;;;;;;2.62;72.90;148325.64;1822972;78;21015;-61
2022/01/17 09:01:24;;;;;;;29.25;12.82;;;;;;;2.58;72.97;148316.64;1802797;77;21000;-60
2022/01/17 09:03:51;;;;;;;28.05;12.33;;;;;;;2.59;73.04;148317.91;1804525;78;21098;-62
2022/01/17 09:06:26;;;;;;;24.45;12.30;;;;;;;2.58;72.92;148316.64;1799802;78;21138;-61
2022/01/17 09:09:07;;;;;;;31.00;11.95;;;;;;;2.54;72.76;148306.34;1773439;79;21108;-60
2022/01/17 09:11:56;;;;;;;27.05;12.50;;;;;;;2.51;72.87;148297.30;1798649;78;21011;-60
2022/01/17 09:14:30;;;;;;;25.08;12.47;;;;;;;2.44;72.91;148280.52;1781318;78;22279;-61
2022/01/17 09:16:57;;;;;;;24.32;12.58;;;;;;;2.42;73.31;148275.36;1766204;79;21094;-60
2022/01/17 09:19:24;;;;;;;26.37;12.40;;;;;;;2.43;73.33;148277.94;1766334;80;21083;-61
2022/01/17 09:21:51;;;;;;;26.42;12.88;;;;;;;2.46;73.50;148284.41;1774088;80;21129;-61
2022/01/17 09:24:17;;;;;;;33.00;13.13;;;;;;;2.47;73.46;148288.25;1737588;81;21021;-62
2022/01/17 09:26:45;;;;;;;28.05;12.70;;;;;;;2.53;73.54;148302.44;1768587;79;21410;-60
2022/01/17 09:29:12;;;;;;;27.95;12.93;;;;;;;2.58;73.61;148315.33;1742366;81;21519;-61
2022/01/17 09:31:39;;;;;;;29.55;13.68;;;;;;;2.60;73.48;148320.48;1763482;80;21128;-61
2022/01/17 09:34:06;;;;;;;31.90;13.93;;;;;;;2.64;73.69;148329.53;1762885;80;21418;-61
2022/01/17 09:36:34;;;;;;;34.58;14.05;;;;;;;2.71;73.64;148348.87;1740167;81;21049;-61
2022/01/17 09:39:02;;;;;;;27.35;13.15;;;;;;;2.79;73.35;148368.23;1759636;80;21061;-59
2022/01/17 09:41:31;;;;;;;27.60;12.93;;;;;;;2.86;72.89;148386.28;1736734;81;21092;-61
2022/01/17 09:43:58;;;;;;;27.42;12.18;;;;;;;2.89;72.63;148391.44;1738334;80;21139;-61
2022/01/17 09:46:31;;;;;;;28.30;12.53;;;;;;;2.95;72.55;148406.91;1790736;79;21060;-60
2022/01/17 09:49:01;;;;;;;28.15;13.48;;;;;;;2.99;72.44;148417.27;1794214;78;21160;-60
2022/01/17 09:51:40;;;;;;;29.55;13.30;;;;;;;3.06;72.38;148435.31;1792514;78;21451;-60
2022/01/17 09:53:52;;;;;;;29.90;14.60;;;;;;;3.13;72.20;148453.36;1788519;78;21150;-61
2022/01/17 09:56:21;;;;;;;28.12;12.80;;;;;;;3.20;71.95;148468.83;1792921;78;21075;-60
2022/01/17 09:58:48;;;;;;;29.27;14.03;;;;;;;3.25;71.74;148483.03;1796812;78;21111;-61
2022/01/17 10:01:14;;;;;;;29.05;12.70;;;;;;;3.30;71.28;148494.67;1792988;78;21064;-65
2022/01/17 10:03:41;;;;;;;27.52;13.25;;;;;;;3.31;70.85;148497.25;1789333;79;21055;-63
2022/01/17 10:06:08;;;;;;;25.35;12.82;;;;;;;3.31;70.63;148497.25;1791811;78;21037;-62
2022/01/17 10:08:35;;;;;;;29.85;13.90;;;;;;;3.33;70.54;148502.41;1790955;78;21025;-63
2022/01/17 10:11:04;;;;;;;28.00;13.32;;;;;;;3.32;70.42;148498.56;1791043;78;21128;-63
2022/01/17 10:13:34;;;;;;;28.02;12.70;;;;;;;3.32;70.46;148498.56;1786699;78;21575;-63
2022/01/17 10:16:20;;;;;;;26.02;12.98;;;;;;;3.33;70.37;148502.41;1792953;78;21076;-61
2022/01/17 10:19:00;;;;;;;29.30;13.20;;;;;;;3.35;70.28;148506.30;1791248;78;21056;-63
2022/01/17 10:21:45;;;;;;;30.95;14.20;;;;;;;3.36;70.15;148510.14;1794906;78;21571;-64
2022/01/17 10:34:57;;;;;;;27.37;13.22;;;;;;;3.39;67.71;148516.61;1787352;78;20151;-62
2022/01/17 10:37:27;;;;;;;26.85;12.00;;;;;;;3.35;67.83;148507.56;1787060;78;21535;-61
2022/01/17 10:40:03;;;;;;;25.85;12.98;;;;;;;3.39;67.86;148517.88;1774163;79;21008;-63
2022/01/17 10:42:39;;;;;;;27.20;12.30;;;;;;;3.50;67.70;148543.72;1776981;78;21060;-64
2022/01/17 10:45:08;;;;;;;26.20;11.38;;;;;;;3.60;67.16;148569.50;1777220;79;21579;-62
2022/01/17 10:47:39;;;;;;;31.60;13.30;;;;;;;3.66;66.24;148585.03;1776648;78;20936;-62
2022/01/17 10:50:14;;;;;;;29.27;13.90;;;;;;;3.66;65.58;148585.03;1779717;78;21039;-63
2022/01/17 10:52:45;;;;;;;24.63;12.50;;;;;;;3.64;64.55;148579.81;1782894;78;21283;-65
2022/01/17 10:55:19;;;;;;;26.37;12.80;;;;;;;3.58;63.36;148565.66;1750201;78;21112;-63
2022/01/17 10:57:49;;;;;;;25.55;13.28;;;;;;;3.48;63.31;148539.81;1792612;78;21065;-63
2022/01/17 11:00:29;;;;;;;25.72;12.63;;;;;;;3.37;63.10;148512.72;1789744;78;21020;-64
2022/01/17 11:03:06;;;;;;;23.05;11.65;;;;;;;3.35;63.69;148506.30;1787481;78;21140;-62
2022/01/17 11:05:45;;;;;;;22.02;10.15;;;;;;;3.37;63.84;148511.45;1785294;78;21075;-64
2022/01/17 11:08:15;;;;;;;24.92;11.25;;;;;;;3.41;63.15;148523.03;1785813;78;21051;-64
2022/01/17 11:10:44;;;;;;;25.30;12.47;;;;;;;3.36;62.85;148510.14;1784745;78;21088;-62
2022/01/17 11:13:14;;;;;;;24.92;13.20;;;;;;;3.32;63.20;148499.81;1784967;78;21573;-63
2022/01/17 11:15:45;;;;;;;23.98;12.07;;;;;;;3.35;63.47;148507.56;1779786;78;21126;-62
2022/01/17 11:18:18;;;;;;;28.15;12.98;;;;;;;3.38;63.18;148515.30;1789558;78;21098;-63
2022/01/17 11:20:49;;;;;;;29.60;11.97;;;;;;;3.35;62.96;148506.30;1772724;78;21030;-63
2022/01/17 11:23:16;;;;;;;25.15;12.40;;;;;;;3.29;63.35;148492.09;1787043;78;21092;-64
2022/01/17 11:25:45;;;;;;;24.98;12.65;;;;;;;3.31;63.65;148497.25;1784763;78;21040;-64
2022/01/17 11:28:15;;;;;;;26.40;13.22;;;;;;;3.36;63.76;148508.87;1781506;78;21013;-63
2022/01/17 11:30:41;;;;;;;25.75;12.65;;;;;;;3.40;63.86;148520.45;1760205;78;21103;-63
2022/01/17 11:33:09;;;;;;;27.70;12.60;;;;;;;3.47;63.85;148537.23;1724131;78;20937;-62
2022/01/17 11:35:41;;;;;;;23.77;11.93;;;;;;;3.49;63.92;148542.41;1780585;78;21108;-63
2022/01/17 11:38:29;;;;;;;27.05;13.30;;;;;;;3.53;63.81;148552.72;1790611;78;20994;-63
2022/01/17 11:40:57;;;;;;;27.62;12.80;;;;;;;3.57;63.49;148561.77;1793039;78;21125;-63
2022/01/17 11:43:33;;;;;;;22.58;11.90;;;;;;;3.62;63.30;148573.41;1792247;78;20972;-63
2022/01/17 11:45:56;;;;;;;28.90;12.47;;;;;;;3.64;63.12;148579.81;1790847;78;21052;-62
2022/01/17 11:48:32;;;;;;;27.35;11.93;;;;;;;3.66;62.84;148585.03;1793914;78;21605;-63
2022/01/17 11:51:14;;;;;;;31.33;12.95;;;;;;;3.69;62.74;148592.77;1789499;78;20980;-63
2022/01/17 11:53:46;;;;;;;26.48;12.82;;;;;;;3.73;62.71;148603.09;1790589;78;21028;-63
2022/01/17 11:56:19;;;;;;;26.68;13.03;;;;;;;3.77;62.61;148610.81;1792615;78;21533;-62
2022/01/17 11:58:47;;;;;;;28.27;12.15;;;;;;;3.79;62.44;148615.98;1764191;78;21058;-62